createdAt,value
2022-10-07T00:00:24.635Z,6.60
2022-10-07T00:04:28.105Z,6.55
2022-10-07T00:08:31.646Z,7.13
2022-10-07T00:12:34.619Z,7.28
2022-10-07T00:16:41.030Z,8.35
2022-10-07T00:20:43.984Z,10.43
2022-10-07T00:24:46.873Z,6.90
2022-10-07T00:28:50.381Z,6.57
2022-10-07T00:32:54.340Z,5.82
2022-10-07T00:36:58.749Z,8.00
2022-10-07T00:41:01.920Z,7.97
2022-10-07T00:45:05.426Z,8.50
2022-10-07T00:49:12.083Z,8.15
2022-10-07T00:57:17.668Z,7.25
2022-10-07T01:01:21.366Z,7.13
2022-10-07T01:05:24.190Z,8.98
2022-10-07T01:09:27.340Z,7.40
2022-10-07T01:13:47.393Z,7.20
2022-10-07T01:18:18.806Z,7.05
2022-10-07T01:22:34.401Z,9.40
2022-10-07T01:30:55.152Z,6.32
2022-10-07T01:34:59.677Z,9.35
2022-10-07T01:39:09.052Z,8.23
2022-10-07T01:43:15.784Z,6.13
2022-10-07T01:47:18.871Z,6.63
2022-10-07T01:51:28.878Z,6.47
2022-10-07T01:55:52.242Z,6.95
2022-10-07T02:00:06.576Z,9.00
2022-10-07T02:04:36.218Z,7.15
2022-10-07T02:08:55.383Z,9.27
2022-10-07T02:13:12.582Z,6.38
2022-10-07T02:17:21.741Z,8.45
2022-10-07T02:21:29.388Z,7.47
2022-10-07T02:25:38.177Z,7.60
2022-10-07T02:29:44.529Z,6.70
2022-10-07T02:33:48.095Z,6.90
2022-10-07T02:37:53.498Z,6.90
2022-10-07T02:42:05.877Z,7.47
2022-10-07T02:46:12.179Z,10.07
2022-10-07T02:54:30.666Z,9.18
2022-10-07T02:58:36.157Z,8.65
2022-10-07T03:02:47.145Z,8.13
2022-10-07T03:06:50.333Z,8.95
2022-10-07T03:10:53.751Z,10.55
2022-10-07T03:14:56.941Z,11.30
2022-10-07T03:18:59.815Z,8.10
2022-10-07T03:23:09.545Z,8.93
2022-10-07T03:27:12.595Z,10.35
2022-10-07T03:31:16.019Z,8.05
2022-10-07T03:35:24.460Z,9.07
2022-10-07T03:39:28.473Z,8.38
2022-10-07T03:43:32.289Z,6.95
2022-10-07T03:47:36.242Z,10.23
2022-10-07T03:51:39.380Z,7.30
2022-10-07T03:55:44.443Z,8.57
2022-10-07T03:59:47.576Z,7.95
2022-10-07T04:03:50.549Z,10.45
2022-10-07T04:07:54.427Z,9.68
2022-10-07T04:11:57.346Z,10.52
2022-10-07T04:16:06.527Z,8.75
2022-10-07T04:20:10.717Z,11.05
2022-10-07T04:24:14.877Z,8.50
2022-10-07T04:28:24.545Z,10.65
2022-10-07T04:32:32.437Z,10.38
2022-10-07T04:36:35.396Z,9.80
2022-10-07T04:40:46.796Z,8.32
2022-10-07T04:44:51.607Z,10.23
2022-10-07T04:48:55.154Z,9.98
2022-10-07T04:53:01.587Z,9.23
2022-10-07T04:57:10.202Z,11.32
2022-10-07T05:01:13.527Z,11.30
2022-10-07T05:05:20.469Z,8.25
2022-10-07T05:09:23.553Z,8.40
2022-10-07T05:13:27.929Z,12.43
2022-10-07T05:17:31.697Z,13.73
2022-10-07T05:21:34.667Z,11.80
2022-10-07T05:25:40.151Z,7.70
2022-10-07T05:29:43.988Z,9.20
2022-10-07T05:33:49.536Z,9.10
2022-10-07T05:37:55.053Z,9.20
2022-10-07T05:41:58.689Z,9.27
2022-10-07T05:46:17.607Z,11.63
2022-10-07T05:50:25.822Z,9.18
2022-10-07T05:54:28.993Z,11.32
2022-10-07T05:58:38.827Z,10.77
2022-10-07T06:02:43.370Z,12.43
2022-10-07T06:06:47.086Z,11.95
2022-10-07T06:11:09.117Z,11.63
2022-10-07T06:15:13.413Z,13.50
2022-10-07T06:19:22.827Z,10.45
2022-10-07T06:23:30.538Z,10.00
2022-10-07T06:27:34.898Z,11.77
2022-10-07T06:31:38.123Z,11.85
2022-10-07T06:35:42.617Z,14.77
2022-10-07T06:39:45.442Z,14.68
2022-10-07T06:43:49.277Z,13.88
2022-10-07T06:47:53.295Z,12.30
2022-10-07T06:51:57.935Z,15.18
2022-10-07T06:56:05.747Z,11.68
2022-10-07T07:00:11.823Z,11.38
2022-10-07T07:04:14.994Z,10.80
2022-10-07T07:08:19.110Z,14.82
2022-10-07T07:12:25.555Z,12.45
2022-10-07T07:16:32.005Z,14.00
2022-10-07T07:20:37.374Z,10.98
2022-10-07T07:24:41.121Z,13.27
2022-10-07T07:28:50.312Z,16.50
2022-10-07T07:32:53.205Z,145.35
2022-10-07T07:36:56.150Z,192.02
2022-10-07T07:41:07.178Z,150.30
2022-10-07T07:49:14.448Z,188.75
2022-10-07T07:53:19.009Z,161.23
2022-10-07T07:57:22.364Z,107.35
2022-10-07T08:01:25.463Z,88.05
2022-10-07T08:05:28.415Z,69.72
2022-10-07T08:09:34.357Z,60.33
2022-10-07T08:13:39.821Z,59.58
2022-10-07T08:17:44.146Z,51.08
2022-10-07T08:21:47.298Z,36.00
2022-10-07T08:26:04.396Z,48.65
2022-10-07T08:30:08.879Z,29.75
2022-10-07T08:34:12.443Z,27.48
2022-10-07T08:38:15.568Z,29.73
2022-10-07T08:42:40.572Z,24.48
2022-10-07T08:47:02.205Z,21.80
2022-10-07T08:51:50.390Z,26.05
2022-10-07T08:55:58.020Z,23.33
2022-10-07T09:00:05.620Z,20.33
2022-10-07T09:04:08.305Z,17.33
2022-10-07T09:08:28.872Z,14.48
2022-10-07T09:12:49.932Z,14.00
2022-10-07T09:16:55.042Z,13.73
2022-10-07T09:20:58.186Z,14.50
2022-10-07T09:25:13.956Z,13.23
2022-10-07T09:29:20.527Z,12.53
2022-10-07T09:37:30.612Z,12.93
2022-10-07T09:41:38.421Z,11.13
2022-10-07T09:45:47.021Z,11.65
2022-10-07T09:49:53.153Z,10.95
2022-10-07T09:54:05.701Z,10.23
2022-10-07T09:58:26.400Z,9.23
2022-10-07T10:02:29.407Z,9.30
2022-10-07T10:06:32.622Z,8.48
2022-10-07T10:10:36.662Z,8.40
2022-10-07T10:14:52.385Z,9.60
2022-10-07T10:19:02.352Z,8.93
2022-10-07T10:23:29.104Z,8.52
2022-10-07T10:27:56.532Z,9.90
2022-10-07T10:32:02.239Z,7.38
2022-10-07T10:36:23.777Z,7.67
2022-10-07T10:40:41.320Z,8.77
2022-10-07T10:44:58.744Z,8.25
2022-10-07T10:49:29.365Z,8.45
2022-10-07T10:54:12.467Z,8.23
2022-10-07T10:58:30.593Z,8.40
2022-10-07T11:02:43.809Z,8.75
2022-10-07T11:07:14.964Z,9.73
2022-10-07T11:11:19.917Z,7.90
2022-10-07T11:15:51.726Z,9.45
2022-10-07T11:20:04.737Z,7.40
2022-10-07T11:24:19.165Z,7.83
2022-10-07T11:28:26.902Z,9.32
2022-10-07T11:32:56.006Z,8.68
2022-10-07T11:37:31.755Z,9.23
2022-10-07T11:41:46.400Z,7.05
2022-10-07T11:45:54.425Z,7.95
2022-10-07T11:50:07.893Z,9.50
2022-10-07T11:54:16.433Z,8.48
2022-10-07T11:58:38.045Z,9.05
2022-10-07T12:02:44.176Z,8.15
2022-10-07T12:11:11.514Z,7.60
2022-10-07T12:15:30.341Z,8.15
2022-10-07T12:19:33.585Z,7.55
2022-10-07T12:23:38.215Z,10.43
2022-10-07T12:27:46.942Z,7.18
2022-10-07T12:31:50.221Z,7.57
2022-10-07T12:35:54.717Z,9.45
2022-10-07T12:39:58.981Z,6.80
2022-10-07T12:44:22.745Z,8.93
2022-10-07T12:48:35.118Z,10.57
2022-10-07T12:52:52.188Z,7.65
2022-10-07T12:56:55.139Z,8.15
2022-10-07T13:01:14.362Z,6.35
2022-10-07T13:05:51.389Z,9.30
2022-10-07T13:10:03.313Z,10.32
2022-10-07T13:14:38.514Z,6.07
2022-10-07T13:18:48.386Z,8.65
2022-10-07T13:22:52.028Z,7.50
2022-10-07T13:26:56.260Z,6.07
2022-10-07T13:31:21.165Z,6.80
2022-10-07T13:35:34.064Z,8.82
2022-10-07T13:39:39.667Z,7.28
2022-10-07T13:43:44.520Z,5.63
2022-10-07T13:47:47.629Z,9.63
2022-10-07T13:51:55.446Z,6.90
2022-10-07T13:56:22.232Z,6.47
2022-10-07T14:00:25.929Z,8.18
2022-10-07T14:04:33.118Z,7.43
2022-10-07T14:08:50.712Z,5.70
2022-10-07T14:12:59.989Z,6.38
2022-10-07T14:17:16.705Z,7.07
2022-10-07T14:21:19.688Z,6.15
2022-10-07T14:25:31.432Z,5.70
2022-10-07T14:29:37.894Z,6.45
2022-10-07T14:34:04.027Z,6.50
2022-10-07T14:38:20.692Z,7.13
2022-10-07T14:42:28.728Z,5.78
2022-10-07T14:46:31.843Z,6.13
2022-10-07T14:50:35.986Z,6.13
2022-10-07T14:54:40.662Z,7.32
2022-10-07T14:58:43.487Z,6.93
2022-10-07T15:02:48.013Z,6.88
2022-10-07T15:06:51.246Z,6.35
2022-10-07T15:10:54.095Z,8.45
2022-10-07T15:14:58.365Z,6.60
2022-10-07T15:19:02.161Z,7.28
2022-10-07T15:23:05.773Z,9.70
2022-10-07T15:27:10.010Z,7.15
2022-10-07T15:31:14.221Z,5.75
2022-10-07T15:35:17.064Z,7.35
2022-10-07T15:39:19.769Z,9.45
2022-10-07T15:43:25.400Z,9.70
2022-10-07T15:47:28.284Z,9.47
2022-10-07T15:51:40.177Z,8.23
2022-10-07T15:55:54.948Z,8.77
2022-10-07T15:59:57.730Z,11.27
2022-10-07T16:04:03.324Z,8.93
2022-10-07T16:08:06.444Z,7.60
2022-10-07T16:12:09.225Z,7.65
2022-10-07T16:16:17.753Z,8.57
2022-10-07T16:20:20.645Z,9.13
2022-10-07T16:24:23.662Z,10.38
2022-10-07T16:28:45.283Z,11.57
2022-10-07T16:32:49.567Z,8.35
2022-10-07T16:36:52.605Z,9.73
2022-10-07T16:40:55.304Z,9.10
2022-10-07T16:44:58.363Z,33.20
2022-10-07T16:49:02.984Z,10.43
2022-10-07T16:53:11.921Z,8.73
2022-10-07T16:57:18.080Z,8.85
2022-10-07T17:01:23.811Z,10.00
2022-10-07T17:05:31.550Z,10.77
2022-10-07T17:09:34.393Z,7.20
2022-10-07T17:13:40.492Z,8.00
2022-10-07T17:17:43.700Z,9.85
2022-10-07T17:21:48.067Z,9.90
2022-10-07T17:25:50.825Z,8.98
2022-10-07T17:29:53.921Z,9.55
2022-10-07T17:33:58.744Z,8.13
2022-10-07T17:38:03.093Z,8.32
2022-10-07T17:42:06.010Z,8.50
2022-10-07T17:46:12.896Z,7.72
2022-10-07T17:50:16.182Z,9.25
2022-10-07T17:54:18.883Z,9.55
2022-10-07T17:58:21.655Z,10.57
2022-10-07T18:02:24.761Z,6.85
2022-10-07T18:06:30.332Z,6.97
2022-10-07T18:10:33.290Z,8.55
2022-10-07T18:14:55.523Z,6.85
2022-10-07T18:18:59.739Z,7.80
2022-10-07T18:23:12.205Z,7.60
2022-10-07T18:27:15.638Z,8.02
2022-10-07T18:31:19.604Z,8.82
2022-10-07T18:35:22.617Z,7.60
2022-10-07T18:39:27.811Z,9.23
2022-10-07T18:43:31.855Z,8.73
2022-10-07T18:47:34.946Z,10.38
2022-10-07T18:51:37.929Z,10.77
2022-10-07T18:55:40.729Z,8.45
2022-10-07T18:59:43.551Z,7.65
2022-10-07T19:03:46.519Z,10.30
2022-10-07T19:07:49.775Z,6.97
2022-10-07T19:11:52.629Z,9.48
2022-10-07T19:15:55.613Z,9.07
2022-10-07T19:20:01.153Z,8.30
2022-10-07T19:24:04.552Z,7.32
2022-10-07T19:28:07.348Z,6.50
2022-10-07T19:32:10.240Z,6.15
2022-10-07T19:36:14.947Z,7.35
2022-10-07T19:40:17.912Z,10.05
2022-10-07T19:44:21.093Z,8.18
2022-10-07T19:48:23.814Z,10.40
2022-10-07T19:52:27.627Z,7.65
2022-10-07T19:56:35.004Z,12.05
2022-10-07T20:00:37.698Z,7.32
2022-10-07T20:04:42.174Z,8.45
2022-10-07T20:08:47.069Z,6.80
2022-10-07T20:12:51.601Z,6.67
2022-10-07T20:16:57.587Z,6.95
2022-10-07T20:21:02.147Z,9.03
2022-10-07T20:25:05.977Z,6.53
2022-10-07T20:29:10.336Z,8.38
2022-10-07T20:33:13.061Z,7.38
2022-10-07T20:37:16.624Z,13.90
2022-10-07T20:41:57.483Z,9.50
2022-10-07T20:46:00.834Z,9.82
2022-10-07T20:50:05.857Z,8.48
2022-10-07T20:54:08.555Z,8.15
2022-10-07T20:58:11.273Z,10.88
2022-10-07T21:02:15.752Z,10.85
2022-10-07T21:06:19.008Z,13.88
2022-10-07T21:10:21.969Z,11.15
2022-10-07T21:14:24.761Z,12.60
2022-10-07T21:18:29.896Z,12.10
2022-10-07T21:22:32.962Z,11.50
2022-10-07T21:26:36.918Z,9.57
2022-10-07T21:30:40.229Z,9.60
2022-10-07T21:34:45.214Z,11.73
2022-10-07T21:38:53.510Z,11.98
2022-10-07T21:42:56.248Z,9.30
2022-10-07T21:47:00.102Z,11.32
2022-10-07T21:51:08.600Z,9.18
2022-10-07T21:55:12.302Z,12.80
2022-10-07T21:59:15.411Z,11.13
2022-10-07T22:03:18.704Z,10.60
2022-10-07T22:07:40.131Z,9.63
2022-10-07T22:11:43.041Z,11.15
2022-10-07T22:15:45.728Z,9.93
2022-10-07T22:19:49.452Z,9.18
2022-10-07T22:23:59.228Z,7.22
2022-10-07T22:28:02.493Z,11.30
2022-10-07T22:32:06.173Z,7.95
2022-10-07T22:36:12.072Z,6.80
2022-10-07T22:40:14.808Z,7.77
2022-10-07T22:44:17.548Z,6.80
2022-10-07T22:48:20.323Z,6.35
2022-10-07T22:52:23.033Z,8.10
2022-10-07T22:56:28.259Z,8.85
2022-10-07T23:00:33.254Z,8.88
2022-10-07T23:04:37.433Z,7.80
2022-10-07T23:08:40.481Z,9.23
2022-10-07T23:12:43.750Z,11.18
2022-10-07T23:16:46.622Z,8.88
2022-10-07T23:21:03.271Z,8.80
2022-10-07T23:25:06.733Z,8.30
2022-10-07T23:29:11.702Z,10.57
2022-10-07T23:33:16.472Z,11.60
2022-10-07T23:37:19.232Z,12.43
2022-10-07T23:41:27.214Z,10.07
2022-10-07T23:45:30.037Z,13.48
2022-10-07T23:49:32.814Z,13.07
2022-10-07T23:53:35.970Z,8.30
2022-10-07T23:57:39.908Z,10.05
